Time;durP1;ratioP1;P1;durP2;ratioP2;P2;SDS_P1;SDS_P2;PMS_P1;PMS_P2;Temp;Humidity;BMP_temperature;BMP_pressure;BME280_temperature;BME280_humidity;BME280_pressure;Samples;Min_cycle;Max_cycle;Signal;HPM_P1;HPM_P2
2023/07/18 00:00:17;;;;;;;4.30;3.90;;;24.40;62.80;;;;;;5069652;28;20455;-73
2023/07/18 00:02:46;;;;;;;3.77;3.47;;;24.30;62.60;;;;;;5052853;28;20205;-73
2023/07/18 00:05:13;;;;;;;3.80;3.53;;;24.30;62.70;;;;;;5032367;28;20778;-72
2023/07/18 00:07:41;;;;;;;5.80;4.10;;;24.30;62.60;;;;;;5048479;28;20520;-73
2023/07/18 00:10:14;;;;;;;3.93;3.50;;;24.30;62.60;;;;;;5032835;28;20439;-73
2023/07/18 00:12:40;;;;;;;3.50;3.17;;;24.30;62.60;;;;;;5067434;28;20792;-73
2023/07/18 00:15:09;;;;;;;3.30;3.10;;;24.20;62.60;;;;;;5069102;28;20891;-73
2023/07/18 00:17:36;;;;;;;3.63;3.33;;;24.20;62.60;;;;;;5069318;28;20449;-73
2023/07/18 00:20:08;;;;;;;3.27;3.07;;;24.20;62.50;;;;;;5069388;28;20460;-72
2023/07/18 00:22:34;;;;;;;3.63;3.33;;;24.20;62.50;;;;;;5052423;28;20551;-73
2023/07/18 00:25:03;;;;;;;3.40;3.10;;;24.20;62.60;;;;;;5069863;28;20421;-73
2023/07/18 00:27:28;;;;;;;5.57;3.73;;;24.20;62.50;;;;;;5070457;28;20504;-73
2023/07/18 00:29:57;;;;;;;3.83;3.37;;;24.10;62.50;;;;;;5069630;28;20841;-73
2023/07/18 00:32:23;;;;;;;3.97;3.67;;;24.10;62.40;;;;;;5052411;28;20203;-72
2023/07/18 00:34:50;;;;;;;4.00;3.60;;;24.10;62.50;;;;;;5069617;28;20433;-72
2023/07/18 00:37:17;;;;;;;3.50;3.30;;;24.10;62.50;;;;;;5069124;28;20429;-72
2023/07/18 00:39:45;;;;;;;6.93;4.20;;;24.10;62.50;;;;;;5069625;28;20941;-72
2023/07/18 00:42:11;;;;;;;6.70;3.47;;;24.10;62.50;;;;;;5052864;28;20421;-73
2023/07/18 00:44:39;;;;;;;4.20;3.90;;;24.10;62.60;;;;;;5052853;28;21081;-72
2023/07/18 00:47:10;;;;;;;4.00;3.70;;;24.00;62.40;;;;;;5036089;28;20197;-73
2023/07/18 00:49:37;;;;;;;4.97;3.30;;;24.00;62.50;;;;;;5069314;28;20464;-73
2023/07/18 00:52:25;;;;;;;4.20;3.90;;;24.00;62.50;;;;;;5069083;28;20483;-73
2023/07/18 00:54:53;;;;;;;3.80;3.60;;;24.00;62.60;;;;;;5069395;28;20413;-73
2023/07/18 00:57:22;;;;;;;4.03;3.63;;;24.00;62.60;;;;;;5052761;28;20429;-72
2023/07/18 00:59:53;;;;;;;4.33;3.93;;;24.00;62.60;;;;;;5070255;28;20413;-73
2023/07/18 01:02:20;;;;;;;3.73;3.47;;;23.90;62.50;;;;;;5069193;28;21225;-73
2023/07/18 01:04:46;;;;;;;3.83;3.63;;;23.90;62.50;;;;;;5052277;28;20429;-72
2023/07/18 01:07:14;;;;;;;4.50;3.80;;;23.90;62.60;;;;;;5052327;28;20508;-73
2023/07/18 01:09:43;;;;;;;4.30;3.90;;;23.90;62.70;;;;;;5067356;28;20477;-72
2023/07/18 01:12:09;;;;;;;4.30;4.00;;;23.90;62.70;;;;;;5068601;28;20501;-72
2023/07/18 01:14:35;;;;;;;4.30;4.00;;;23.90;62.60;;;;;;5044584;28;20434;-73
2023/07/18 01:17:05;;;;;;;4.90;4.00;;;23.80;62.60;;;;;;5032875;28;20443;-73
2023/07/18 01:19:37;;;;;;;3.60;3.37;;;23.80;62.60;;;;;;5019514;28;20442;-73
2023/07/18 01:22:05;;;;;;;4.23;3.73;;;23.80;62.60;;;;;;5065408;28;20402;-72
2023/07/18 01:24:33;;;;;;;4.00;3.60;;;23.80;62.70;;;;;;5062201;28;20422;-72
2023/07/18 01:26:59;;;;;;;4.20;3.50;;;23.80;62.80;;;;;;5051643;28;20473;-72
2023/07/18 01:29:28;;;;;;;3.80;3.50;;;23.80;62.80;;;;;;5051974;28;20508;-73
2023/07/18 01:31:55;;;;;;;4.27;3.87;;;23.70;62.60;;;;;;5069010;28;20517;-72
2023/07/18 01:34:21;;;;;;;4.63;4.10;;;23.70;62.70;;;;;;5069523;28;20465;-73
2023/07/18 01:36:47;;;;;;;4.00;3.70;;;23.70;62.70;;;;;;5051934;28;20519;-73
2023/07/18 01:39:13;;;;;;;4.90;4.20;;;23.70;62.70;;;;;;5067795;28;20209;-72
2023/07/18 01:41:39;;;;;;;3.80;3.60;;;23.70;62.70;;;;;;5068583;28;20437;-72
2023/07/18 01:44:08;;;;;;;5.20;4.23;;;23.70;63.60;;;;;;5104729;22;20221;-72
2023/07/18 01:46:34;;;;;;;3.93;3.60;;;23.70;62.80;;;;;;5013921;28;20517;-71
2023/07/18 01:49:04;;;;;;;4.60;4.30;;;23.60;62.70;;;;;;5029877;28;20471;-72
2023/07/18 01:51:30;;;;;;;4.33;3.97;;;23.60;62.70;;;;;;5029838;28;20787;-72
2023/07/18 01:53:59;;;;;;;5.40;4.27;;;23.60;62.70;;;;;;5029992;28;20882;-72
2023/07/18 01:56:25;;;;;;;4.23;3.83;;;23.60;62.70;;;;;;5029739;28;20400;-72
2023/07/18 01:58:51;;;;;;;4.60;3.87;;;23.60;62.80;;;;;;5029555;28;20466;-72
2023/07/18 02:01:19;;;;;;;5.00;3.87;;;23.60;62.80;;;;;;5029946;28;20474;-72
2023/07/18 02:03:46;;;;;;;5.40;4.20;;;23.60;62.80;;;;;;5029869;28;20423;-71
2023/07/18 02:06:13;;;;;;;4.07;3.67;;;23.50;62.60;;;;;;5029213;28;20415;-72
2023/07/18 02:08:38;;;;;;;4.23;3.83;;;23.50;62.60;;;;;;4996705;28;20462;-72
2023/07/18 02:11:04;;;;;;;4.87;4.50;;;23.50;62.60;;;;;;5029438;28;20446;-72
2023/07/18 02:13:30;;;;;;;4.30;4.00;;;23.50;62.60;;;;;;5029488;28;20496;-72
2023/07/18 02:15:59;;;;;;;4.60;4.20;;;23.50;62.70;;;;;;5029522;28;20423;-72
2023/07/18 02:18:25;;;;;;;4.90;4.23;;;23.40;62.50;;;;;;5029332;28;20450;-72
2023/07/18 02:20:51;;;;;;;4.27;3.97;;;23.40;62.60;;;;;;5029483;28;20467;-72
2023/07/18 02:23:17;;;;;;;4.37;3.90;;;23.40;62.60;;;;;;5030405;28;20219;-71
2023/07/18 02:25:46;;;;;;;4.23;3.93;;;23.40;62.60;;;;;;5029287;28;20419;-71
2023/07/18 02:28:12;;;;;;;6.10;4.30;;;23.40;62.60;;;;;;5028836;28;21305;-72
2023/07/18 02:30:38;;;;;;;8.37;4.70;;;23.40;62.60;;;;;;5012444;28;20443;-72
2023/07/18 02:33:07;;;;;;;5.17;4.67;;;23.40;62.70;;;;;;5015509;28;20510;-72
2023/07/18 02:35:35;;;;;;;4.60;4.30;;;23.40;62.60;;;;;;5032307;28;20493;-72
2023/07/18 02:38:01;;;;;;;4.60;4.20;;;23.30;62.60;;;;;;5032413;28;20965;-72
2023/07/18 02:40:27;;;;;;;5.27;4.87;;;23.30;62.70;;;;;;5032384;28;20451;-72
2023/07/18 02:42:53;;;;;;;4.63;4.20;;;23.30;62.60;;;;;;5015869;28;20442;-72
2023/07/18 02:45:20;;;;;;;4.73;4.33;;;23.30;62.60;;;;;;5032252;28;20471;-72
2023/07/18 02:47:46;;;;;;;4.63;4.23;;;23.30;62.70;;;;;;4999443;28;20495;-72
2023/07/18 02:50:13;;;;;;;4.50;3.70;;;23.30;62.70;;;;;;5031407;28;20930;-72
2023/07/18 02:52:43;;;;;;;5.17;4.23;;;23.30;62.70;;;;;;5032503;28;20417;-72
2023/07/18 02:55:09;;;;;;;4.87;4.47;;;23.20;62.70;;;;;;4999356;28;20841;-72
2023/07/18 02:57:41;;;;;;;4.83;4.43;;;23.20;62.70;;;;;;4999816;28;20443;-72
2023/07/18 03:00:19;;;;;;;4.80;4.43;;;23.20;62.70;;;;;;5031934;28;20439;-72
2023/07/18 03:02:47;;;;;;;4.73;4.43;;;23.20;62.80;;;;;;5033177;28;20465;-72
2023/07/18 03:05:19;;;;;;;4.57;4.07;;;23.20;62.80;;;;;;5032010;28;20632;-72
2023/07/18 03:07:46;;;;;;;6.93;4.37;;;23.20;62.80;;;;;;5031978;28;20493;-72
2023/07/18 03:10:15;;;;;;;4.43;4.13;;;23.10;62.70;;;;;;5032084;28;20416;-72
2023/07/18 03:12:43;;;;;;;5.10;4.13;;;23.10;62.70;;;;;;5015092;28;21179;-72
2023/07/18 03:15:12;;;;;;;4.33;4.00;;;23.10;62.80;;;;;;5031817;28;21004;-72
2023/07/18 03:17:41;;;;;;;4.93;4.07;;;23.10;62.80;;;;;;5031699;28;20787;-72
2023/07/18 03:20:16;;;;;;;4.87;4.37;;;23.10;63.70;;;;;;5047374;28;20415;-72
2023/07/18 03:22:50;;;;;;;4.93;4.50;;;23.10;62.80;;;;;;5031486;28;20419;-72
2023/07/18 03:25:20;;;;;;;4.70;4.27;;;23.10;62.80;;;;;;5030312;28;20423;-72
2023/07/18 03:27:47;;;;;;;4.50;4.20;;;23.00;62.80;;;;;;5032530;28;21100;-72
2023/07/18 03:30:14;;;;;;;4.50;4.20;;;23.00;62.90;;;;;;5031376;28;20454;-72
2023/07/18 03:32:43;;;;;;;6.20;4.67;;;23.00;62.90;;;;;;5014965;28;20179;-72
2023/07/18 03:35:11;;;;;;;4.70;4.30;;;23.00;62.90;;;;;;5031124;28;20419;-72
2023/07/18 03:37:37;;;;;;;5.20;4.80;;;23.00;62.90;;;;;;5031427;28;20450;-72
2023/07/18 03:40:06;;;;;;;4.10;3.70;;;23.00;63.00;;;;;;5047677;28;20490;-72
2023/07/18 03:42:34;;;;;;;4.70;4.30;;;23.00;63.10;;;;;;5047380;28;20789;-72
2023/07/18 03:45:00;;;;;;;4.37;3.97;;;22.90;63.00;;;;;;5030044;28;20492;-72
2023/07/18 03:47:28;;;;;;;4.97;4.57;;;22.90;63.00;;;;;;5029481;28;20427;-72
2023/07/18 03:49:56;;;;;;;4.83;4.33;;;22.90;63.00;;;;;;5028898;28;20796;-72
2023/07/18 03:52:24;;;;;;;4.47;4.17;;;22.90;63.00;;;;;;5029643;28;20808;-72
2023/07/18 03:54:50;;;;;;;5.33;4.93;;;22.90;63.00;;;;;;5030184;28;20419;-72
2023/07/18 03:57:16;;;;;;;4.70;4.30;;;22.90;63.00;;;;;;5031114;28;20415;-72
2023/07/18 03:59:42;;;;;;;4.50;4.10;;;22.90;63.10;;;;;;5029856;28;20422;-72
2023/07/18 04:02:08;;;;;;;5.03;4.37;;;22.80;63.00;;;;;;4997165;28;20338;-72
2023/07/18 04:04:34;;;;;;;4.30;3.90;;;22.80;63.10;;;;;;5029527;28;20411;-72
2023/07/18 04:07:02;;;;;;;4.57;4.17;;;22.80;63.20;;;;;;5029437;28;20765;-72
2023/07/18 04:09:35;;;;;;;4.13;3.83;;;22.80;63.10;;;;;;5028249;28;20470;-72
2023/07/18 04:12:01;;;;;;;4.40;4.10;;;22.80;63.10;;;;;;5031021;28;20415;-72
2023/07/18 04:14:27;;;;;;;4.27;3.97;;;22.80;63.30;;;;;;5029045;28;20489;-72
2023/07/18 04:16:53;;;;;;;4.40;4.10;;;22.80;63.30;;;;;;5012815;28;20416;-72
2023/07/18 04:19:19;;;;;;;5.17;4.67;;;22.80;63.30;;;;;;5030549;28;20443;-72
2023/07/18 04:21:47;;;;;;;4.73;4.33;;;22.80;63.40;;;;;;5030806;28;20181;-72
2023/07/18 04:24:13;;;;;;;4.20;3.90;;;22.70;63.30;;;;;;5029784;28;21009;-72
2023/07/18 04:26:44;;;;;;;4.27;3.97;;;22.70;63.20;;;;;;5029787;28;20251;-72
2023/07/18 04:29:10;;;;;;;4.50;3.80;;;22.70;63.30;;;;;;5013222;28;20467;-72
2023/07/18 04:31:36;;;;;;;4.00;3.70;;;22.70;63.30;;;;;;5029520;28;20423;-72
2023/07/18 04:34:04;;;;;;;4.20;3.90;;;22.70;63.30;;;;;;5029300;28;20415;-72
2023/07/18 04:36:37;;;;;;;4.27;3.87;;;22.70;63.40;;;;;;5029184;28;20439;-72
2023/07/18 04:39:06;;;;;;;4.03;3.80;;;22.70;63.50;;;;;;5028987;28;20474;-72
2023/07/18 04:41:32;;;;;;;4.63;4.23;;;22.70;63.50;;;;;;5028967;28;20432;-72
2023/07/18 04:43:58;;;;;;;4.30;4.00;;;22.60;63.40;;;;;;5028956;28;20435;-72
2023/07/18 04:46:26;;;;;;;4.00;3.70;;;22.60;63.50;;;;;;5030802;28;20275;-72
2023/07/18 04:48:57;;;;;;;4.50;4.10;;;22.60;63.60;;;;;;5029062;28;20980;-72
2023/07/18 04:51:25;;;;;;;4.30;3.90;;;22.60;63.70;;;;;;5029160;28;20572;-72
2023/07/18 04:53:56;;;;;;;4.07;3.77;;;22.60;63.70;;;;;;5027896;28;20472;-72
2023/07/18 04:56:27;;;;;;;4.13;3.73;;;22.60;63.70;;;;;;5012899;28;20463;-72
2023/07/18 04:58:55;;;;;;;5.03;4.17;;;22.50;63.70;;;;;;5028872;28;20444;-72
2023/07/18 05:01:23;;;;;;;4.30;3.90;;;22.50;63.80;;;;;;5028804;28;20557;-72
2023/07/18 05:03:49;;;;;;;4.43;3.97;;;22.50;63.80;;;;;;5029984;28;20431;-73
2023/07/18 05:06:18;;;;;;;4.30;3.90;;;22.50;63.80;;;;;;5029116;28;20514;-72
2023/07/18 05:08:44;;;;;;;4.27;3.97;;;22.50;63.80;;;;;;5028448;28;20814;-72
2023/07/18 05:11:10;;;;;;;5.10;3.47;;;22.50;63.80;;;;;;5028891;28;20481;-72
2023/07/18 05:13:38;;;;;;;4.27;3.97;;;22.50;63.90;;;;;;5029099;28;20411;-72
2023/07/18 05:16:09;;;;;;;4.13;3.70;;;22.50;63.90;;;;;;5028643;28;20230;-72
2023/07/18 05:18:35;;;;;;;3.93;3.63;;;22.40;63.90;;;;;;5027698;28;20482;-72
2023/07/18 05:21:01;;;;;;;4.53;4.23;;;22.40;64.70;;;;;;5028875;28;20434;-72
2023/07/18 05:23:27;;;;;;;4.80;4.40;;;22.40;63.90;;;;;;5027079;28;20415;-72
2023/07/18 05:25:57;;;;;;;4.43;4.13;;;22.40;64.00;;;;;;5091876;22;20584;-70
2023/07/18 05:28:23;;;;;;;6.17;4.00;;;22.40;64.00;;;;;;5057818;28;20509;-70
2023/07/18 05:30:52;;;;;;;4.20;3.90;;;22.40;64.00;;;;;;5045057;28;20446;-71
2023/07/18 05:33:18;;;;;;;4.70;3.80;;;22.40;64.10;;;;;;5045008;28;20462;-70
2023/07/18 05:35:47;;;;;;;4.47;4.10;;;22.40;64.10;;;;;;5013282;28;20533;-71
2023/07/18 05:38:13;;;;;;;4.33;4.00;;;22.40;64.10;;;;;;5030484;28;21020;-70
2023/07/18 05:40:40;;;;;;;5.27;4.10;;;22.40;64.20;;;;;;5046856;28;20446;-70
2023/07/18 05:43:06;;;;;;;4.50;4.10;;;22.40;64.20;;;;;;5046431;28;20183;-70
2023/07/18 05:45:37;;;;;;;4.40;4.00;;;22.40;64.20;;;;;;5046566;28;21314;-71
2023/07/18 05:48:07;;;;;;;3.90;3.60;;;22.40;64.30;;;;;;5046411;28;21010;-71
2023/07/18 05:50:36;;;;;;;5.17;3.93;;;22.40;64.30;;;;;;5046778;28;20427;-70
2023/07/18 05:53:07;;;;;;;4.70;4.20;;;22.30;64.30;;;;;;5047750;28;20458;-71
2023/07/18 05:55:33;;;;;;;5.00;4.17;;;22.30;64.20;;;;;;5047100;28;20502;-70
2023/07/18 05:58:01;;;;;;;4.33;3.93;;;22.30;64.30;;;;;;5030364;28;20976;-71
2023/07/18 06:00:29;;;;;;;4.40;3.93;;;22.30;64.30;;;;;;5048012;28;20464;-71
2023/07/18 06:02:55;;;;;;;4.20;3.80;;;22.30;64.30;;;;;;5045872;28;20454;-71
2023/07/18 06:05:21;;;;;;;4.37;3.97;;;22.30;64.20;;;;;;5048383;28;20457;-71
2023/07/18 06:07:52;;;;;;;4.67;4.23;;;22.30;64.30;;;;;;5049830;28;20486;-71
2023/07/18 06:10:21;;;;;;;4.53;4.13;;;22.30;64.30;;;;;;5050082;28;20464;-70
2023/07/18 06:12:46;;;;;;;4.50;4.10;;;22.30;64.20;;;;;;5049988;28;20421;-71
2023/07/18 06:15:12;;;;;;;5.97;4.17;;;22.30;64.30;;;;;;5033910;28;20438;-75
2023/07/18 06:17:41;;;;;;;4.50;4.10;;;22.30;64.40;;;;;;5033736;28;20458;-72
2023/07/18 06:20:12;;;;;;;4.27;3.77;;;22.20;64.20;;;;;;5033434;28;20424;-71
2023/07/18 06:22:39;;;;;;;4.07;3.67;;;22.30;64.40;;;;;;5033547;28;20426;-71
2023/07/18 06:25:06;;;;;;;4.57;4.17;;;22.20;64.20;;;;;;5050212;28;20514;-71
2023/07/18 06:27:35;;;;;;;4.27;3.63;;;22.20;64.30;;;;;;5050038;28;20509;-71
2023/07/18 06:30:01;;;;;;;4.30;3.47;;;22.20;64.30;;;;;;5033759;28;20858;-71
2023/07/18 06:32:28;;;;;;;4.10;3.70;;;22.20;64.30;;;;;;5049772;28;20468;-71
2023/07/18 06:34:55;;;;;;;4.60;4.03;;;22.20;64.40;;;;;;5051193;28;20433;-71
2023/07/18 06:37:21;;;;;;;4.70;4.27;;;22.20;64.40;;;;;;5033570;28;20928;-70
2023/07/18 06:39:50;;;;;;;3.90;3.57;;;22.20;64.40;;;;;;5045250;28;20422;-70
2023/07/18 06:42:19;;;;;;;4.40;4.00;;;22.20;64.30;;;;;;5029606;28;20423;-70
2023/07/18 06:44:54;;;;;;;4.03;3.70;;;22.20;64.40;;;;;;5013086;28;20419;-70
2023/07/18 06:47:24;;;;;;;3.90;3.50;;;22.20;64.30;;;;;;5013909;28;20465;-70
2023/07/18 06:49:50;;;;;;;4.10;3.67;;;22.20;64.40;;;;;;5045931;28;20516;-70
2023/07/18 06:52:16;;;;;;;4.27;3.63;;;22.20;64.50;;;;;;5028759;28;20419;-70
2023/07/18 06:54:43;;;;;;;3.80;3.40;;;22.20;64.50;;;;;;5030206;28;20473;-71
2023/07/18 06:57:14;;;;;;;4.03;3.73;;;22.20;64.50;;;;;;5029208;28;20201;-70
2023/07/18 06:59:43;;;;;;;4.77;4.30;;;22.20;64.50;;;;;;5028696;28;20446;-71
2023/07/18 07:02:11;;;;;;;5.10;3.73;;;22.20;64.60;;;;;;5042444;28;20449;-70
2023/07/18 07:04:39;;;;;;;5.13;3.90;;;22.20;64.50;;;;;;5050329;28;20451;-70
2023/07/18 07:07:08;;;;;;;4.37;3.97;;;22.20;64.40;;;;;;5049089;28;20427;-70
2023/07/18 07:09:34;;;;;;;5.80;3.67;;;22.20;64.40;;;;;;5048774;28;20466;-70
2023/07/18 07:12:01;;;;;;;4.20;3.80;;;22.20;64.50;;;;;;5065745;28;20419;-71
2023/07/18 07:14:27;;;;;;;4.47;3.87;;;22.20;64.50;;;;;;5048762;28;20972;-70
2023/07/18 07:16:58;;;;;;;5.03;4.07;;;22.20;64.40;;;;;;5049520;28;20438;-70
2023/07/18 07:19:27;;;;;;;4.60;3.60;;;22.20;64.30;;;;;;5032542;28;20491;-71
2023/07/18 07:21:59;;;;;;;4.27;3.90;;;22.20;64.40;;;;;;5065028;28;20417;-71
2023/07/18 07:24:25;;;;;;;7.67;3.80;;;22.20;64.40;;;;;;5032050;28;20998;-70
2023/07/18 07:26:51;;;;;;;4.10;3.80;;;22.20;64.40;;;;;;5048496;28;20884;-70
2023/07/18 07:29:19;;;;;;;4.50;4.10;;;22.20;64.30;;;;;;5031398;28;20474;-70
2023/07/18 07:31:45;;;;;;;4.07;3.67;;;22.20;64.40;;;;;;5047968;28;20462;-70
2023/07/18 07:34:11;;;;;;;4.80;3.57;;;22.20;64.20;;;;;;5081870;28;20828;-70
2023/07/18 07:36:40;;;;;;;4.17;3.77;;;22.20;64.30;;;;;;5049750;28;20763;-70
2023/07/18 07:39:06;;;;;;;4.03;3.73;;;22.20;64.40;;;;;;5064832;28;20446;-70
2023/07/18 07:41:32;;;;;;;3.97;3.60;;;22.20;64.30;;;;;;5031491;28;20425;-70
2023/07/18 07:43:58;;;;;;;4.70;4.00;;;22.30;64.50;;;;;;5047801;28;20489;-71
2023/07/18 07:46:23;;;;;;;3.53;3.10;;;22.20;64.30;;;;;;5047981;28;20457;-70
2023/07/18 07:48:52;;;;;;;7.10;3.93;;;22.20;64.40;;;;;;5047853;28;20470;-70
2023/07/18 07:51:18;;;;;;;5.83;4.50;;;22.30;64.60;;;;;;5048146;28;21079;-70
2023/07/18 07:53:44;;;;;;;4.20;3.80;;;22.30;64.50;;;;;;5031547;28;20429;-70
2023/07/18 07:56:10;;;;;;;4.43;4.03;;;22.30;64.50;;;;;;5049027;28;20418;-70
2023/07/18 07:58:39;;;;;;;4.00;3.70;;;22.30;64.40;;;;;;5048903;28;20453;-70
2023/07/18 08:01:05;;;;;;;5.80;4.60;;;22.30;64.40;;;;;;5049061;28;20925;-71
2023/07/18 08:03:33;;;;;;;7.60;4.17;;;22.30;64.50;;;;;;5048074;28;20425;-70
2023/07/18 08:06:00;;;;;;;4.03;3.63;;;22.30;64.30;;;;;;5048923;28;20467;-70
2023/07/18 08:08:29;;;;;;;4.40;3.90;;;22.30;64.40;;;;;;5063915;28;21012;-70
2023/07/18 08:10:57;;;;;;;6.60;4.20;;;22.30;64.20;;;;;;5048787;28;20470;-70
2023/07/18 08:13:25;;;;;;;4.60;4.23;;;22.40;64.20;;;;;;5048327;28;20419;-70
2023/07/18 08:15:54;;;;;;;4.63;3.90;;;22.30;64.20;;;;;;5049137;28;20798;-70
2023/07/18 08:18:19;;;;;;;3.97;3.63;;;22.40;64.20;;;;;;5048562;28;20748;-70
2023/07/18 08:20:47;;;;;;;6.90;3.97;;;22.40;64.20;;;;;;5031348;28;20510;-70
2023/07/18 08:23:13;;;;;;;5.13;3.80;;;22.40;64.20;;;;;;5026747;28;20177;-70
2023/07/18 08:25:43;;;;;;;4.73;4.20;;;22.40;64.20;;;;;;5044092;28;20834;-70
2023/07/18 08:28:12;;;;;;;4.00;3.70;;;22.40;64.10;;;;;;5027050;28;20837;-70
2023/07/18 08:30:41;;;;;;;3.77;3.47;;;22.50;64.10;;;;;;5042702;28;20427;-70
2023/07/18 08:33:10;;;;;;;4.07;3.70;;;22.50;64.20;;;;;;5027283;28;20528;-70
2023/07/18 08:35:38;;;;;;;4.43;4.13;;;22.50;64.10;;;;;;5043677;28;20419;-70
2023/07/18 08:38:08;;;;;;;4.00;3.63;;;22.50;64.20;;;;;;5043960;28;20463;-70
2023/07/18 08:40:43;;;;;;;4.90;3.47;;;22.50;64.10;;;;;;5027416;28;20480;-70
2023/07/18 08:43:14;;;;;;;4.80;3.70;;;22.50;63.90;;;;;;5027201;28;20430;-70
2023/07/18 08:45:41;;;;;;;3.57;3.30;;;22.60;63.90;;;;;;4994640;28;20786;-70
2023/07/18 08:48:09;;;;;;;3.73;3.43;;;22.60;63.90;;;;;;5043664;28;20475;-71
2023/07/18 08:51:02;;;;;;;4.40;4.00;;;22.60;63.90;;;;;;5043959;28;20458;-70
2023/07/18 08:53:31;;;;;;;4.43;3.77;;;22.70;64.00;;;;;;5043948;28;20432;-70
2023/07/18 08:55:57;;;;;;;4.23;3.83;;;22.70;63.90;;;;;;5027229;28;20887;-70
2023/07/18 08:58:25;;;;;;;3.33;3.10;;;22.70;63.80;;;;;;5060844;28;20821;-70
2023/07/18 09:00:51;;;;;;;4.80;3.70;;;22.70;63.60;;;;;;5046705;28;20433;-71
2023/07/18 09:03:17;;;;;;;3.83;3.50;;;22.70;63.50;;;;;;5048260;28;20430;-70
2023/07/18 09:05:43;;;;;;;3.53;3.30;;;22.80;63.50;;;;;;5080954;28;20422;-70
2023/07/18 09:08:10;;;;;;;4.30;3.90;;;22.80;63.50;;;;;;5047431;28;21047;-70
2023/07/18 09:10:36;;;;;;;4.70;3.60;;;22.80;63.50;;;;;;5047555;28;20443;-70
2023/07/18 09:13:09;;;;;;;3.50;3.30;;;22.80;63.40;;;;;;5047359;28;20418;-70
2023/07/18 09:15:37;;;;;;;4.83;3.50;;;22.90;63.40;;;;;;5081101;28;20493;-70
2023/07/18 09:18:06;;;;;;;4.00;3.60;;;22.90;63.30;;;;;;5047188;28;21258;-70
2023/07/18 09:20:33;;;;;;;3.57;3.37;;;22.90;63.20;;;;;;5047547;28;20421;-70
2023/07/18 09:23:04;;;;;;;4.33;4.00;;;22.90;63.00;;;;;;5031514;28;20952;-70
2023/07/18 09:25:31;;;;;;;4.07;3.67;;;23.00;63.10;;;;;;5047813;28;20466;-70
2023/07/18 09:27:58;;;;;;;5.43;3.70;;;23.00;62.90;;;;;;5049014;28;20864;-70
2023/07/18 09:30:35;;;;;;;3.87;3.57;;;23.00;62.90;;;;;;5031537;28;20423;-72
2023/07/18 09:33:07;;;;;;;3.93;3.30;;;23.00;62.80;;;;;;5046952;28;20455;-72
2023/07/18 09:35:38;;;;;;;3.83;3.53;;;23.10;62.70;;;;;;5030456;28;20418;-72
2023/07/18 09:38:09;;;;;;;3.73;3.40;;;23.10;62.60;;;;;;5046569;28;20449;-72
2023/07/18 09:40:38;;;;;;;3.10;2.80;;;23.10;62.60;;;;;;5047514;28;20507;-72
2023/07/18 09:43:04;;;;;;;3.30;3.10;;;23.10;62.60;;;;;;5051686;28;20501;-72
2023/07/18 09:45:34;;;;;;;5.77;3.30;;;23.20;62.60;;;;;;5083858;28;20461;-72
2023/07/18 09:48:03;;;;;;;4.20;3.47;;;23.20;62.40;;;;;;5109856;22;20495;-71
2023/07/18 09:50:31;;;;;;;4.17;3.57;;;23.20;62.30;;;;;;5016898;28;20410;-71
2023/07/18 09:53:01;;;;;;;3.50;3.10;;;23.30;62.20;;;;;;5016122;28;20404;-71
2023/07/18 09:55:30;;;;;;;3.90;3.50;;;23.30;62.10;;;;;;5032314;28;20952;-71
2023/07/18 09:57:58;;;;;;;7.00;3.27;;;23.30;61.90;;;;;;5033576;28;20434;-71
2023/07/18 10:00:26;;;;;;;3.80;3.40;;;23.30;61.90;;;;;;5034157;28;20383;-71
2023/07/18 10:02:55;;;;;;;5.70;3.60;;;23.30;61.90;;;;;;5015622;28;20758;-71
2023/07/18 10:05:24;;;;;;;3.63;3.43;;;23.40;61.90;;;;;;5033553;28;20477;-71
2023/07/18 10:07:50;;;;;;;3.80;3.50;;;23.40;62.00;;;;;;5015314;28;20449;-71
2023/07/18 10:10:19;;;;;;;3.50;3.20;;;23.40;61.70;;;;;;5032147;28;20410;-71
2023/07/18 10:12:54;;;;;;;3.70;3.30;;;23.50;61.50;;;;;;5031946;28;20438;-71
2023/07/18 10:15:23;;;;;;;3.60;3.30;;;23.50;61.50;;;;;;5032300;28;20411;-71
2023/07/18 10:17:49;;;;;;;3.70;3.40;;;23.50;61.50;;;;;;5032005;28;21146;-71
2023/07/18 10:20:23;;;;;;;3.80;3.37;;;23.50;61.40;;;;;;5033138;28;20463;-71
2023/07/18 10:22:57;;;;;;;3.73;3.43;;;23.60;61.40;;;;;;5031961;28;20458;-71
2023/07/18 10:25:25;;;;;;;3.20;3.00;;;23.60;62.20;;;;;;5031796;28;20449;-71
2023/07/18 10:27:52;;;;;;;3.90;3.60;;;23.70;61.40;;;;;;5033076;28;20449;-71
2023/07/18 10:30:19;;;;;;;3.40;3.20;;;23.70;61.30;;;;;;5032757;28;20415;-71
2023/07/18 10:32:58;;;;;;;3.87;3.57;;;23.70;61.50;;;;;;5031461;28;20450;-71
2023/07/18 10:35:29;;;;;;;3.67;3.37;;;23.80;61.50;;;;;;5015017;28;20462;-71
2023/07/18 10:38:03;;;;;;;3.43;3.20;;;23.80;61.50;;;;;;5033001;28;20447;-71
2023/07/18 10:40:39;;;;;;;4.93;3.50;;;23.80;61.30;;;;;;5031197;28;20512;-71
2023/07/18 10:43:15;;;;;;;3.50;3.20;;;23.80;61.20;;;;;;5031065;28;20483;-71
2023/07/18 10:45:43;;;;;;;3.10;2.90;;;23.90;61.20;;;;;;4998180;28;20459;-71
2023/07/18 10:48:22;;;;;;;6.60;3.70;;;23.90;61.10;;;;;;5032216;28;20624;-71
2023/07/18 10:50:48;;;;;;;3.93;3.60;;;23.90;61.10;;;;;;5014839;28;20446;-71
2023/07/18 10:53:18;;;;;;;5.20;3.17;;;23.90;61.10;;;;;;5032228;28;20415;-70
2023/07/18 10:55:45;;;;;;;3.70;3.50;;;24.00;61.10;;;;;;5031227;28;20415;-71
2023/07/18 10:58:18;;;;;;;3.70;3.40;;;24.00;61.00;;;;;;5014719;28;20440;-70
2023/07/18 11:00:50;;;;;;;3.70;3.20;;;24.00;60.90;;;;;;5030851;28;20911;-69
2023/07/18 11:03:20;;;;;;;3.30;3.10;;;24.00;60.70;;;;;;5030800;28;20411;-71
2023/07/18 11:05:50;;;;;;;5.03;3.17;;;24.10;60.50;;;;;;5032238;28;20442;-70
2023/07/18 11:08:29;;;;;;;3.77;3.20;;;24.10;60.60;;;;;;5030562;28;20877;-70
2023/07/18 11:11:03;;;;;;;3.33;3.13;;;24.10;60.30;;;;;;5031108;28;20904;-70
2023/07/18 11:13:34;;;;;;;3.43;3.23;;;24.10;60.20;;;;;;5030782;28;20431;-70
2023/07/18 11:16:10;;;;;;;3.80;3.50;;;24.10;60.10;;;;;;5032096;28;20502;-70
2023/07/18 11:18:43;;;;;;;4.03;3.63;;;24.10;59.90;;;;;;5030383;28;20477;-70
2023/07/18 11:21:11;;;;;;;3.70;3.40;;;24.10;60.00;;;;;;5030619;28;20493;-71
2023/07/18 11:23:40;;;;;;;3.63;3.33;;;24.20;60.00;;;;;;5030656;28;20538;-71
2023/07/18 11:26:18;;;;;;;2.90;2.70;;;24.20;59.90;;;;;;5094363;22;20555;-70
2023/07/18 11:28:49;;;;;;;4.07;3.50;;;24.20;59.70;;;;;;5051973;28;20535;-70
2023/07/18 11:31:27;;;;;;;3.60;3.30;;;24.20;59.50;;;;;;5033107;28;20777;-70
2023/07/18 11:33:57;;;;;;;3.50;3.20;;;24.20;59.30;;;;;;5033608;28;20430;-70
2023/07/18 11:36:31;;;;;;;3.00;2.80;;;24.20;59.40;;;;;;5050096;28;20419;-70
2023/07/18 11:38:59;;;;;;;2.97;2.77;;;24.20;59.30;;;;;;5033328;28;21008;-71
2023/07/18 11:41:38;;;;;;;4.73;3.07;;;24.30;59.40;;;;;;5049813;28;20945;-70
2023/07/18 11:44:06;;;;;;;4.20;3.50;;;24.30;59.40;;;;;;5050750;28;21045;-71
2023/07/18 11:46:44;;;;;;;3.90;3.30;;;24.30;59.20;;;;;;5050024;28;20430;-70
2023/07/18 11:49:13;;;;;;;7.03;3.30;;;24.40;59.20;;;;;;5033336;28;20608;-70
2023/07/18 11:51:43;;;;;;;3.63;3.17;;;24.40;59.20;;;;;;5050128;28;20415;-71
2023/07/18 11:54:09;;;;;;;4.97;3.20;;;24.40;59.30;;;;;;5049707;28;20450;-70
2023/07/18 11:56:40;;;;;;;4.10;3.70;;;24.40;59.20;;;;;;5049634;28;20414;-70
2023/07/18 11:59:10;;;;;;;8.00;4.43;;;24.40;59.10;;;;;;5033029;28;20515;-70
2023/07/18 12:01:38;;;;;;;4.60;3.80;;;24.40;59.00;;;;;;5050896;28;20466;-71
2023/07/18 12:04:14;;;;;;;4.30;4.00;;;24.50;59.00;;;;;;5032686;28;20425;-71
2023/07/18 12:06:42;;;;;;;3.57;3.37;;;24.50;59.00;;;;;;5032889;28;20513;-70
2023/07/18 12:09:13;;;;;;;3.83;3.53;;;24.50;58.70;;;;;;5033187;28;20535;-70
2023/07/18 12:11:44;;;;;;;3.73;3.43;;;24.50;58.90;;;;;;5050809;28;20478;-70
2023/07/18 12:14:10;;;;;;;6.93;3.70;;;24.50;58.80;;;;;;5049163;28;20854;-70
2023/07/18 12:16:38;;;;;;;3.50;3.20;;;24.60;58.70;;;;;;5050324;28;20939;-70
2023/07/18 12:19:07;;;;;;;4.13;3.73;;;24.60;58.80;;;;;;5048459;28;20438;-70
2023/07/18 12:21:33;;;;;;;3.63;3.33;;;24.60;58.70;;;;;;5050282;28;20709;-70
2023/07/18 12:24:01;;;;;;;3.70;3.40;;;24.70;59.20;;;;;;5016061;28;20484;-71
2023/07/18 12:26:27;;;;;;;3.83;3.53;;;24.70;58.60;;;;;;5048836;28;20970;-71
2023/07/18 12:28:55;;;;;;;4.60;4.10;;;24.70;58.50;;;;;;5048737;28;20470;-71
2023/07/18 12:31:21;;;;;;;5.60;3.63;;;24.70;58.40;;;;;;5032183;28;20415;-70
2023/07/18 12:33:49;;;;;;;4.40;4.00;;;24.80;58.20;;;;;;5048896;28;20415;-71
2023/07/18 12:36:15;;;;;;;3.70;3.40;;;24.80;58.30;;;;;;5032094;28;20469;-70
2023/07/18 12:38:41;;;;;;;6.57;4.50;;;24.80;58.20;;;;;;5049882;28;20842;-71
2023/07/18 12:41:12;;;;;;;4.13;3.80;;;24.80;58.10;;;;;;5049156;28;20208;-71
2023/07/18 12:43:38;;;;;;;4.20;3.80;;;24.90;58.10;;;;;;5032176;28;20428;-71
2023/07/18 12:46:06;;;;;;;3.83;3.50;;;24.90;57.90;;;;;;5048952;28;20439;-71
2023/07/18 12:48:34;;;;;;;4.13;3.73;;;24.90;57.60;;;;;;5050064;28;20492;-70
2023/07/18 12:51:02;;;;;;;4.33;3.90;;;25.00;57.90;;;;;;5049065;28;20949;-71
2023/07/18 12:53:29;;;;;;;3.67;3.37;;;25.00;57.60;;;;;;5049956;28;20445;-71